Time;durP1;ratioP1;P1;durP2;ratioP2;P2;SDS_P1;SDS_P2;PMS_P1;PMS_P2;Temp;Humidity;BMP_temperature;BMP_pressure;BME280_temperature;BME280_humidity;BME280_pressure;Samples;Min_cycle;Max_cycle;Signal;HPM_P1;HPM_P2
2023/05/09 00:02:23;;;;;;;;;2.00;2.00;;;;;;;;4994817;28;45344;-67
2023/05/09 00:04:48;;;;;;;;;2.67;2.67;;;;;;;;4994799;28;45706;-67
2023/05/09 00:07:13;;;;;;;;;2.67;2.67;;;;;;;;4995055;28;45543;-67
2023/05/09 00:09:39;;;;;;;;;3.00;3.00;;;;;;;;4995381;28;45394;-67
2023/05/09 00:12:04;;;;;;;;;3.00;3.00;;;;;;;;4995291;28;45384;-67
2023/05/09 00:14:32;;;;;;;;;3.00;3.00;;;;;;;;4994243;28;46434;-66
2023/05/09 00:16:58;;;;;;;;;3.33;3.33;;;;;;;;4995020;28;45383;-67
2023/05/09 00:19:23;;;;;;;;;2.00;2.00;;;;;;;;4994830;28;45385;-67
2023/05/09 00:21:48;;;;;;;;;3.00;3.00;;;;;;;;4994982;28;45265;-67
2023/05/09 00:24:13;;;;;;;;;2.00;2.00;;;;;;;;4994878;28;45394;-66
2023/05/09 00:26:38;;;;;;;;;4.00;3.00;;;;;;;;4994833;28;45435;-67
2023/05/09 00:29:04;;;;;;;;;2.00;2.00;;;;;;;;4995441;28;45327;-67
2023/05/09 00:31:29;;;;;;;;;3.67;2.67;;;;;;;;4994850;28;45432;-67
2023/05/09 00:33:54;;;;;;;;;4.00;4.00;;;;;;;;4994634;28;45613;-67
2023/05/09 00:36:20;;;;;;;;;3.75;3.00;;;;;;;;4994764;28;45347;-66
2023/05/09 00:38:46;;;;;;;;;4.33;3.33;;;;;;;;4994921;28;45501;-67
2023/05/09 00:41:11;;;;;;;;;3.00;3.00;;;;;;;;4995506;28;45339;-67
2023/05/09 00:43:36;;;;;;;;;3.00;3.00;;;;;;;;4982525;28;46118;-67
2023/05/09 00:46:01;;;;;;;;;4.75;2.75;;;;;;;;4994513;28;45354;-68
2023/05/09 00:48:27;;;;;;;;;3.50;3.50;;;;;;;;4994945;28;45320;-68
2023/05/09 00:50:52;;;;;;;;;4.00;4.00;;;;;;;;4995077;28;45484;-68
2023/05/09 00:53:20;;;;;;;;;3.00;3.00;;;;;;;;4994734;28;46085;-68
2023/05/09 00:55:46;;;;;;;;;5.67;3.33;;;;;;;;4994602;28;45439;-67
2023/05/09 00:58:11;;;;;;;;;2.00;2.00;;;;;;;;4994776;28;45522;-67
2023/05/09 01:00:36;;;;;;;;;4.00;2.00;;;;;;;;4977254;28;45348;-67
2023/05/09 01:03:02;;;;;;;;;2.33;2.33;;;;;;;;4994335;28;46227;-68
2023/05/09 01:05:42;;;;;;;;;3.67;3.33;;;;;;;;4994649;28;45479;-67
2023/05/09 01:08:07;;;;;;;;;3.50;3.50;;;;;;;;4994677;28;45367;-68
2023/05/09 01:10:51;;;;;;;;;2.75;2.75;;;;;;;;4992986;28;45641;-67
2023/05/09 01:13:26;;;;;;;;;3.25;3.25;;;;;;;;4993735;28;47516;-67
2023/05/09 01:16:11;;;;;;;;;6.00;4.00;;;;;;;;4994571;28;45360;-67
2023/05/09 01:18:36;;;;;;;;;2.67;2.33;;;;;;;;4994016;28;45443;-67
2023/05/09 01:21:07;;;;;;;;;3.00;3.00;;;;;;;;4996509;28;45446;-67
2023/05/09 01:23:38;;;;;;;;;3.00;3.00;;;;;;;;4994331;28;45930;-68
2023/05/09 01:26:04;;;;;;;;;3.00;3.00;;;;;;;;4994120;28;45455;-68
2023/05/09 01:28:48;;;;;;;;;3.00;3.00;;;;;;;;4994061;28;45675;-68
2023/05/09 01:31:14;;;;;;;;;3.00;3.00;;;;;;;;4993878;28;45445;-68
2023/05/09 01:33:41;;;;;;;;;3.67;2.67;;;;;;;;4993780;28;46272;-67
2023/05/09 01:36:12;;;;;;;;;4.00;4.00;;;;;;;;4992879;28;46051;-68
2023/05/09 01:38:39;;;;;;;;;2.25;2.25;;;;;;;;4993581;28;45382;-67
2023/05/09 01:41:05;;;;;;;;;3.25;3.25;;;;;;;;4993145;28;45586;-67
2023/05/09 01:43:31;;;;;;;;;4.00;3.25;;;;;;;;4994079;28;46345;-68
2023/05/09 01:45:58;;;;;;;;;2.00;2.00;;;;;;;;4994208;28;45387;-67
2023/05/09 01:48:25;;;;;;;;;2.50;2.25;;;;;;;;4994112;28;45297;-68
2023/05/09 01:50:51;;;;;;;;;2.00;2.00;;;;;;;;4997244;28;45528;-67
2023/05/09 01:53:16;;;;;;;;;3.50;3.50;;;;;;;;4996868;28;46316;-68
2023/05/09 01:55:42;;;;;;;;;2.00;2.00;;;;;;;;4995720;28;45331;-67
2023/05/09 01:58:08;;;;;;;;;3.00;3.00;;;;;;;;4997482;28;45517;-67
2023/05/09 02:00:34;;;;;;;;;3.50;3.50;;;;;;;;4997001;28;45473;-67
2023/05/09 02:03:00;;;;;;;;;3.50;3.50;;;;;;;;4995224;28;45849;-67
2023/05/09 02:05:27;;;;;;;;;5.00;2.75;;;;;;;;4979465;28;45488;-67
2023/05/09 02:07:53;;;;;;;;;4.25;3.25;;;;;;;;4977341;28;45407;-67
2023/05/09 02:10:19;;;;;;;;;4.50;4.00;;;;;;;;4977534;28;45379;-68
2023/05/09 02:12:44;;;;;;;;;1.00;1.00;;;;;;;;4976929;28;45364;-67
2023/05/09 02:15:10;;;;;;;;;3.75;3.75;;;;;;;;4977211;28;45453;-67
2023/05/09 02:17:35;;;;;;;;;2.33;2.33;;;;;;;;4995120;28;45418;-67
2023/05/09 02:20:01;;;;;;;;;3.50;3.00;;;;;;;;4996972;28;45366;-68
2023/05/09 02:22:26;;;;;;;;;4.00;4.00;;;;;;;;4996512;28;47375;-67
2023/05/09 02:24:52;;;;;;;;;2.67;2.33;;;;;;;;4996592;28;45399;-67
2023/05/09 02:27:17;;;;;;;;;3.00;3.00;;;;;;;;4996893;28;45352;-68
2023/05/09 02:29:46;;;;;;;;;5.00;3.00;;;;;;;;4996756;28;45465;-67
2023/05/09 02:32:14;;;;;;;;;3.00;3.00;;;;;;;;4996613;28;45367;-67
2023/05/09 02:34:39;;;;;;;;;3.00;3.00;;;;;;;;4996605;28;45290;-67
2023/05/09 02:37:06;;;;;;;;;4.00;4.00;;;;;;;;4996229;28;45341;-67
2023/05/09 02:39:31;;;;;;;;;1.67;1.67;;;;;;;;4996886;28;45389;-67
2023/05/09 02:42:00;;;;;;;;;3.00;3.00;;;;;;;;4996892;28;45404;-67
2023/05/09 02:44:25;;;;;;;;;1.75;1.75;;;;;;;;4997104;28;45433;-67
2023/05/09 02:46:51;;;;;;;;;3.75;2.75;;;;;;;;4995473;28;45459;-67
2023/05/09 02:49:16;;;;;;;;;2.25;2.25;;;;;;;;4995287;28;45456;-67
2023/05/09 02:51:41;;;;;;;;;3.50;3.50;;;;;;;;4996131;28;45552;-67
2023/05/09 02:54:07;;;;;;;;;3.50;3.50;;;;;;;;4996567;28;45446;-68
2023/05/09 02:56:32;;;;;;;;;1.33;1.33;;;;;;;;4996098;28;45424;-68
2023/05/09 02:58:58;;;;;;;;;2.25;2.25;;;;;;;;4995270;28;45506;-68
2023/05/09 03:01:23;;;;;;;;;2.75;2.75;;;;;;;;4994651;28;47278;-68
2023/05/09 03:03:48;;;;;;;;;3.50;3.50;;;;;;;;4995608;28;45348;-67
2023/05/09 03:06:14;;;;;;;;;3.33;3.33;;;;;;;;4995424;28;45437;-68
2023/05/09 03:08:39;;;;;;;;;3.25;3.25;;;;;;;;4995300;28;45430;-68
2023/05/09 03:11:04;;;;;;;;;4.50;4.50;;;;;;;;4994031;28;46773;-68
2023/05/09 03:13:29;;;;;;;;;5.00;4.00;;;;;;;;4995325;28;45399;-67
2023/05/09 03:15:55;;;;;;;;;3.33;3.33;;;;;;;;4995245;28;45427;-67
2023/05/09 03:18:20;;;;;;;;;3.33;2.33;;;;;;;;4995069;28;45641;-67
2023/05/09 03:20:45;;;;;;;;;5.50;4.50;;;;;;;;4994712;28;45471;-67
2023/05/09 03:23:10;;;;;;;;;3.00;2.00;;;;;;;;4995262;28;45380;-67
2023/05/09 03:25:35;;;;;;;;;3.00;3.00;;;;;;;;4994660;28;45273;-67
2023/05/09 03:28:01;;;;;;;;;4.75;3.50;;;;;;;;4994312;28;45384;-67
2023/05/09 03:30:26;;;;;;;;;3.00;3.00;;;;;;;;4992528;28;45648;-67
2023/05/09 03:32:51;;;;;;;;;2.25;2.25;;;;;;;;4994543;28;45334;-67
2023/05/09 03:35:16;;;;;;;;;3.33;3.33;;;;;;;;4994395;28;45324;-67
2023/05/09 03:37:42;;;;;;;;;3.50;3.50;;;;;;;;4994190;28;45547;-66
2023/05/09 03:40:07;;;;;;;;;2.75;2.75;;;;;;;;4994352;28;46179;-68
2023/05/09 03:42:32;;;;;;;;;4.75;4.75;;;;;;;;4994208;28;45352;-67
2023/05/09 03:44:58;;;;;;;;;3.25;2.00;;;;;;;;4994744;28;45434;-66
2023/05/09 03:47:23;;;;;;;;;4.50;3.25;;;;;;;;4993923;28;45428;-67
2023/05/09 03:49:48;;;;;;;;;2.00;2.00;;;;;;;;4994032;28;46288;-67
2023/05/09 03:52:13;;;;;;;;;3.00;3.00;;;;;;;;4993953;28;45419;-67
2023/05/09 03:54:39;;;;;;;;;1.75;1.75;;;;;;;;4993931;28;45631;-68
2023/05/09 03:57:04;;;;;;;;;3.00;3.00;;;;;;;;4949104;28;1310625;-67
2023/05/09 03:59:29;;;;;;;;;1.00;1.00;;;;;;;;4995446;28;45648;-67
2023/05/09 04:01:54;;;;;;;;;0.75;0.50;;;;;;;;4993959;28;45462;-67
2023/05/09 04:04:20;;;;;;;;;2.00;1.00;;;;;;;;4995708;28;45391;-68
2023/05/09 04:06:45;;;;;;;;;1.00;1.00;;;;;;;;4995413;28;45367;-69
2023/05/09 04:09:10;;;;;;;;;1.00;1.00;;;;;;;;4995096;28;46086;-69
2023/05/09 04:11:35;;;;;;;;;1.00;1.00;;;;;;;;4994903;28;45413;-69
2023/05/09 04:14:02;;;;;;;;;0.00;0.00;;;;;;;;4994423;28;45569;-69
2023/05/09 04:16:27;;;;;;;;;1.00;1.00;;;;;;;;4995257;28;45320;-69
2023/05/09 04:18:52;;;;;;;;;1.75;1.75;;;;;;;;4994534;28;46116;-68
2023/05/09 04:21:17;;;;;;;;;0.50;0.50;;;;;;;;4994898;28;45551;-69
2023/05/09 04:23:42;;;;;;;;;2.00;2.00;;;;;;;;4995324;28;45403;-69
2023/05/09 04:26:09;;;;;;;;;1.50;1.50;;;;;;;;4995005;28;45512;-69
2023/05/09 04:28:34;;;;;;;;;0.00;0.00;;;;;;;;4994941;28;45328;-70
2023/05/09 04:31:00;;;;;;;;;3.33;1.00;;;;;;;;4994370;28;45452;-70
2023/05/09 04:33:27;;;;;;;;;2.50;2.25;;;;;;;;4994742;28;45341;-72
2023/05/09 04:35:53;;;;;;;;;2.00;2.00;;;;;;;;4995703;28;45420;-73
2023/05/09 04:38:18;;;;;;;;;1.00;1.00;;;;;;;;4993540;28;46187;-73
2023/05/09 04:40:43;;;;;;;;;0.67;0.67;;;;;;;;4994443;28;45631;-71
2023/05/09 04:43:08;;;;;;;;;2.00;2.00;;;;;;;;4995421;28;45414;-71
2023/05/09 04:45:33;;;;;;;;;0.00;0.00;;;;;;;;4994735;28;45564;-71
2023/05/09 04:47:59;;;;;;;;;1.50;1.50;;;;;;;;4994651;28;47106;-72
2023/05/09 04:50:24;;;;;;;;;1.00;1.00;;;;;;;;4994655;28;45447;-72
2023/05/09 04:52:49;;;;;;;;;1.00;1.00;;;;;;;;4994621;28;45367;-72
2023/05/09 04:55:15;;;;;;;;;4.67;2.00;;;;;;;;4994979;28;45394;-72
2023/05/09 04:57:40;;;;;;;;;3.00;1.50;;;;;;;;4993504;28;47215;-72
2023/05/09 05:00:06;;;;;;;;;1.00;1.00;;;;;;;;4993050;28;45354;-74
2023/05/09 05:02:31;;;;;;;;;1.67;0.67;;;;;;;;4994695;28;45411;-72
2023/05/09 05:04:57;;;;;;;;;2.00;2.00;;;;;;;;4993875;28;45581;-73
2023/05/09 05:07:22;;;;;;;;;2.00;1.00;;;;;;;;4994248;28;46047;-72
2023/05/09 05:09:47;;;;;;;;;2.00;1.00;;;;;;;;4994584;28;45466;-72
2023/05/09 05:12:12;;;;;;;;;2.00;2.00;;;;;;;;4994658;28;45595;-70
2023/05/09 05:14:38;;;;;;;;;1.00;1.00;;;;;;;;4994054;28;45438;-69
2023/05/09 05:17:03;;;;;;;;;2.00;2.00;;;;;;;;4994107;28;46411;-70
2023/05/09 05:19:28;;;;;;;;;1.00;1.00;;;;;;;;4976285;28;45469;-69
2023/05/09 05:21:53;;;;;;;;;1.25;1.25;;;;;;;;4994661;28;45410;-70
2023/05/09 05:24:19;;;;;;;;;2.00;2.00;;;;;;;;4995640;28;45431;-70
2023/05/09 05:26:44;;;;;;;;;1.33;1.33;;;;;;;;4997256;28;46725;-72
2023/05/09 05:29:09;;;;;;;;;1.00;1.00;;;;;;;;4997411;28;45340;-73
2023/05/09 05:31:35;;;;;;;;;2.00;2.00;;;;;;;;4995975;28;45351;-73
2023/05/09 05:34:00;;;;;;;;;3.00;2.00;;;;;;;;4997860;28;45475;-72
2023/05/09 05:36:25;;;;;;;;;1.75;1.75;;;;;;;;4997276;28;46874;-70
2023/05/09 05:38:50;;;;;;;;;0.00;0.00;;;;;;;;4997195;28;45351;-70
2023/05/09 05:41:16;;;;;;;;;2.00;2.00;;;;;;;;4996293;28;45444;-69
2023/05/09 05:43:41;;;;;;;;;2.00;1.25;;;;;;;;4998131;28;45620;-69
2023/05/09 05:46:06;;;;;;;;;3.00;3.00;;;;;;;;4996650;28;45347;-68
2023/05/09 05:48:31;;;;;;;;;5.50;2.50;;;;;;;;4997384;28;45319;-68
2023/05/09 05:50:57;;;;;;;;;2.00;2.00;;;;;;;;4997517;28;45478;-69
2023/05/09 05:53:22;;;;;;;;;2.75;2.75;;;;;;;;4997565;28;45559;-69
2023/05/09 05:55:48;;;;;;;;;2.75;2.75;;;;;;;;4997462;28;46398;-68
2023/05/09 05:58:13;;;;;;;;;2.25;2.25;;;;;;;;4996867;28;45478;-69
2023/05/09 06:00:38;;;;;;;;;3.00;3.00;;;;;;;;4996580;28;45284;-69
2023/05/09 06:03:03;;;;;;;;;2.25;2.00;;;;;;;;4995582;28;45708;-68
2023/05/09 06:05:29;;;;;;;;;4.25;1.75;;;;;;;;4996826;28;47038;-68
2023/05/09 06:07:54;;;;;;;;;3.00;3.00;;;;;;;;4997600;28;45509;-69
2023/05/09 06:10:19;;;;;;;;;2.00;2.00;;;;;;;;4997065;28;45602;-68
2023/05/09 06:12:44;;;;;;;;;3.25;3.25;;;;;;;;4997297;28;45609;-70
2023/05/09 06:15:10;;;;;;;;;2.33;2.00;;;;;;;;4996725;28;46191;-69
2023/05/09 06:17:35;;;;;;;;;3.00;3.00;;;;;;;;4995993;28;46043;-68
2023/05/09 06:20:00;;;;;;;;;2.00;2.00;;;;;;;;4997152;28;45344;-68
2023/05/09 06:22:25;;;;;;;;;5.00;2.00;;;;;;;;4996408;28;45388;-68
2023/05/09 06:24:50;;;;;;;;;3.33;3.33;;;;;;;;4995610;28;47117;-69
2023/05/09 06:27:16;;;;;;;;;3.25;2.75;;;;;;;;4997296;28;45405;-69
2023/05/09 06:29:41;;;;;;;;;2.75;2.75;;;;;;;;4996616;28;45459;-69
2023/05/09 06:32:06;;;;;;;;;1.00;1.00;;;;;;;;4997037;28;45895;-68
2023/05/09 06:34:31;;;;;;;;;1.00;1.00;;;;;;;;4996482;28;47201;-69
2023/05/09 06:36:56;;;;;;;;;2.75;2.00;;;;;;;;4996458;28;45586;-68
2023/05/09 06:39:22;;;;;;;;;2.00;2.00;;;;;;;;4997023;28;45406;-68
2023/05/09 06:41:47;;;;;;;;;1.50;1.50;;;;;;;;4997024;28;45629;-69
2023/05/09 06:44:12;;;;;;;;;2.25;2.25;;;;;;;;4996519;28;45493;-69
2023/05/09 06:46:37;;;;;;;;;1.00;1.00;;;;;;;;4996880;28;45488;-69
2023/05/09 06:49:03;;;;;;;;;1.00;1.00;;;;;;;;4997013;28;45433;-69
2023/05/09 06:51:29;;;;;;;;;2.67;2.00;;;;;;;;4996774;28;45348;-68
2023/05/09 06:53:55;;;;;;;;;2.50;1.50;;;;;;;;4996571;28;47357;-68
2023/05/09 06:56:21;;;;;;;;;1.75;1.75;;;;;;;;4995384;28;46181;-68
2023/05/09 06:58:47;;;;;;;;;2.00;1.00;;;;;;;;4994931;28;45415;-67
2023/05/09 07:01:12;;;;;;;;;2.75;2.00;;;;;;;;4995922;28;45818;-67
2023/05/09 07:03:37;;;;;;;;;2.33;1.00;;;;;;;;4996357;28;45718;-68
2023/05/09 07:06:02;;;;;;;;;1.25;1.25;;;;;;;;4996463;28;45264;-68
2023/05/09 07:08:28;;;;;;;;;1.00;1.00;;;;;;;;4996697;28;45413;-68
2023/05/09 07:10:53;;;;;;;;;0.33;0.33;;;;;;;;4996097;28;45328;-68
2023/05/09 07:13:18;;;;;;;;;1.00;1.00;;;;;;;;4995571;28;46138;-68
2023/05/09 07:15:43;;;;;;;;;1.00;1.00;;;;;;;;4995034;28;45384;-68
2023/05/09 07:18:08;;;;;;;;;1.25;1.25;;;;;;;;4996359;28;45387;-68
2023/05/09 07:20:34;;;;;;;;;0.33;0.33;;;;;;;;4996395;28;45429;-68
2023/05/09 07:22:59;;;;;;;;;2.00;2.00;;;;;;;;4978180;28;47304;-68
2023/05/09 07:25:24;;;;;;;;;1.50;1.50;;;;;;;;4996176;28;45430;-69
2023/05/09 07:27:49;;;;;;;;;0.00;0.00;;;;;;;;4996495;28;45583;-68
2023/05/09 07:30:15;;;;;;;;;1.50;1.00;;;;;;;;4994716;28;45517;-68
2023/05/09 07:32:40;;;;;;;;;2.00;1.00;;;;;;;;4994398;28;46418;-68
2023/05/09 07:35:05;;;;;;;;;2.00;2.00;;;;;;;;4996410;28;45785;-69
2023/05/09 07:37:30;;;;;;;;;1.00;1.00;;;;;;;;4995442;28;45868;-68
2023/05/09 07:39:56;;;;;;;;;4.00;2.75;;;;;;;;4995826;28;45331;-68
2023/05/09 07:42:21;;;;;;;;;2.75;2.00;;;;;;;;4994036;28;45515;-68
2023/05/09 07:44:46;;;;;;;;;2.00;2.00;;;;;;;;4995136;28;45597;-68
2023/05/09 07:47:12;;;;;;;;;3.00;2.00;;;;;;;;4993857;28;45409;-68
2023/05/09 07:49:39;;;;;;;;;1.25;1.25;;;;;;;;4994704;28;45427;-68
2023/05/09 07:52:04;;;;;;;;;1.00;1.00;;;;;;;;4995724;28;45415;-69
2023/05/09 07:54:29;;;;;;;;;2.00;2.00;;;;;;;;4995869;28;45573;-68
2023/05/09 07:56:55;;;;;;;;;1.00;1.00;;;;;;;;4995763;28;45735;-69
2023/05/09 07:59:20;;;;;;;;;1.75;1.75;;;;;;;;4995615;28;45538;-69
2023/05/09 08:01:45;;;;;;;;;2.25;2.00;;;;;;;;4995788;28;46699;-68
2023/05/09 08:04:10;;;;;;;;;2.50;1.00;;;;;;;;4995788;28;45521;-69
2023/05/09 08:06:35;;;;;;;;;1.67;1.67;;;;;;;;4995815;28;45359;-68
2023/05/09 08:09:01;;;;;;;;;2.50;2.50;;;;;;;;4995732;28;45566;-68
2023/05/09 08:11:26;;;;;;;;;3.75;3.00;;;;;;;;4995175;28;45504;-69
2023/05/09 08:13:52;;;;;;;;;1.50;1.50;;;;;;;;4995576;28;45445;-68
2023/05/09 08:16:17;;;;;;;;;0.75;0.75;;;;;;;;4995257;28;45396;-69
2023/05/09 08:18:42;;;;;;;;;1.25;1.25;;;;;;;;4994792;28;45436;-69
2023/05/09 08:21:07;;;;;;;;;4.00;2.00;;;;;;;;4995448;28;45421;-69
2023/05/09 08:23:33;;;;;;;;;2.00;1.00;;;;;;;;4995122;28;45359;-70
2023/05/09 08:25:58;;;;;;;;;2.00;2.00;;;;;;;;4995296;28;45424;-70
2023/05/09 08:28:23;;;;;;;;;2.00;2.00;;;;;;;;4995142;28;45520;-69
2023/05/09 08:30:51;;;;;;;;;2.75;1.75;;;;;;;;4994906;28;46438;-69
2023/05/09 08:33:16;;;;;;;;;3.00;2.00;;;;;;;;4994978;28;45459;-70
2023/05/09 08:35:42;;;;;;;;;2.00;2.00;;;;;;;;4995431;28;45713;-70
2023/05/09 08:38:07;;;;;;;;;2.00;2.00;;;;;;;;4995240;28;45506;-69
2023/05/09 08:40:36;;;;;;;;;1.00;1.00;;;;;;;;4995011;28;45384;-70
2023/05/09 08:43:02;;;;;;;;;2.00;2.00;;;;;;;;4993783;28;45488;-70
2023/05/09 08:45:29;;;;;;;;;1.00;1.00;;;;;;;;4994648;28;45248;-70
2023/05/09 08:47:54;;;;;;;;;2.50;2.50;;;;;;;;4995376;28;45437;-70
2023/05/09 08:50:20;;;;;;;;;2.00;2.00;;;;;;;;4994381;28;46149;-70
2023/05/09 08:52:46;;;;;;;;;3.00;2.00;;;;;;;;4994320;28;45429;-70
2023/05/09 08:55:11;;;;;;;;;2.00;2.00;;;;;;;;4994735;28;45458;-69
2023/05/09 08:57:37;;;;;;;;;2.00;2.00;;;;;;;;4994740;28;45637;-70
2023/05/09 09:00:06;;;;;;;;;2.75;2.75;;;;;;;;4994621;28;45954;-70
2023/05/09 09:02:31;;;;;;;;;2.00;2.00;;;;;;;;4994906;28;45514;-70
2023/05/09 09:04:56;;;;;;;;;3.25;2.25;;;;;;;;4994476;28;45366;-69
2023/05/09 09:07:22;;;;;;;;;2.00;2.00;;;;;;;;4994259;28;45509;-68
2023/05/09 09:09:48;;;;;;;;;2.00;2.00;;;;;;;;4994725;28;46244;-69
2023/05/09 09:12:15;;;;;;;;;1.00;1.00;;;;;;;;4994979;28;45336;-68
2023/05/09 09:14:41;;;;;;;;;3.00;1.33;;;;;;;;4994281;28;45546;-69
2023/05/09 09:17:07;;;;;;;;;2.50;1.25;;;;;;;;4994322;28;45364;-68
2023/05/09 09:19:34;;;;;;;;;1.25;1.25;;;;;;;;4994527;28;45464;-68
2023/05/09 09:22:03;;;;;;;;;0.00;0.00;;;;;;;;4994144;28;45331;-68
2023/05/09 09:24:28;;;;;;;;;2.00;2.00;;;;;;;;4994846;28;45261;-69
2023/05/09 09:26:53;;;;;;;;;3.00;2.00;;;;;;;;4994321;28;45497;-68
2023/05/09 09:29:22;;;;;;;;;1.00;1.00;;;;;;;;4994052;28;46173;-69
2023/05/09 09:31:51;;;;;;;;;1.00;1.00;;;;;;;;4994396;28;45442;-70
2023/05/09 09:34:20;;;;;;;;;1.00;1.00;;;;;;;;4994025;28;45483;-70
2023/05/09 09:36:47;;;;;;;;;1.00;1.00;;;;;;;;4994075;28;45339;-69
2023/05/09 09:39:12;;;;;;;;;1.67;1.67;;;;;;;;4994239;28;45524;-69
2023/05/09 09:41:38;;;;;;;;;1.00;1.00;;;;;;;;4993948;28;45460;-69
2023/05/09 09:44:14;;;;;;;;;1.00;1.00;;;;;;;;4994235;28;45331;-69
2023/05/09 09:46:49;;;;;;;;;1.00;1.00;;;;;;;;4994011;28;45487;-69
2023/05/09 09:49:15;;;;;;;;;0.25;0.25;;;;;;;;4994421;28;45925;-68
2023/05/09 09:51:41;;;;;;;;;0.00;0.00;;;;;;;;4993990;28;45324;-70
2023/05/09 09:54:07;;;;;;;;;0.33;0.33;;;;;;;;4993742;28;45272;-69
2023/05/09 09:56:42;;;;;;;;;1.00;1.00;;;;;;;;4994041;28;45276;-69
2023/05/09 09:59:18;;;;;;;;;1.00;1.00;;;;;;;;4992960;28;47316;-69
2023/05/09 10:01:52;;;;;;;;;1.75;1.75;;;;;;;;4994083;28;45319;-69
2023/05/09 10:04:17;;;;;;;;;1.00;1.00;;;;;;;;4993628;28;45289;-69
2023/05/09 10:06:50;;;;;;;;;0.33;0.33;;;;;;;;4993317;28;45468;-69
2023/05/09 10:09:15;;;;;;;;;1.75;1.75;;;;;;;;4993076;28;47223;-69
2023/05/09 10:11:41;;;;;;;;;2.00;1.00;;;;;;;;4996473;28;45357;-69
2023/05/09 10:14:07;;;;;;;;;1.75;1.00;;;;;;;;4994230;28;45347;-70
2023/05/09 10:16:32;;;;;;;;;0.00;0.00;;;;;;;;4985966;28;45431;-69
2023/05/09 10:18:57;;;;;;;;;1.00;0.00;;;;;;;;4978569;28;46693;-70
2023/05/09 10:21:23;;;;;;;;;1.00;1.00;;;;;;;;4994508;28;45481;-69
2023/05/09 10:23:49;;;;;;;;;1.00;1.00;;;;;;;;4997007;28;45315;-69
2023/05/09 10:26:14;;;;;;;;;1.00;1.00;;;;;;;;4996415;28;45598;-69
2023/05/09 10:28:40;;;;;;;;;1.00;1.00;;;;;;;;4996510;28;45423;-69
2023/05/09 10:31:11;;;;;;;;;0.00;0.00;;;;;;;;4997084;28;45510;-69
2023/05/09 10:33:45;;;;;;;;;1.00;1.00;;;;;;;;4997091;28;45341;-69
2023/05/09 10:36:10;;;;;;;;;0.33;0.33;;;;;;;;4996260;28;45692;-69
2023/05/09 10:38:36;;;;;;;;;1.00;1.00;;;;;;;;4996900;28;45355;-69
2023/05/09 10:41:02;;;;;;;;;1.00;1.00;;;;;;;;4996668;28;45441;-68
2023/05/09 10:43:27;;;;;;;;;0.00;0.00;;;;;;;;4996608;28;45379;-69
2023/05/09 10:45:53;;;;;;;;;0.67;0.67;;;;;;;;4996549;28;45390;-69
2023/05/09 10:48:18;;;;;;;;;0.33;0.33;;;;;;;;4996604;28;46386;-69
2023/05/09 10:50:45;;;;;;;;;1.00;1.00;;;;;;;;4996241;28;45435;-69
2023/05/09 10:53:12;;;;;;;;;0.67;0.67;;;;;;;;4996959;28;45438;-69
2023/05/09 10:55:46;;;;;;;;;1.00;1.00;;;;;;;;4996412;28;45502;-69
2023/05/09 10:58:21;;;;;;;;;0.00;0.00;;;;;;;;4996339;28;46986;-67
2023/05/09 11:00:47;;;;;;;;;1.00;1.00;;;;;;;;4995298;28;45460;-67
2023/05/09 11:03:12;;;;;;;;;1.00;1.00;;;;;;;;4996437;28;45699;-68
2023/05/09 11:05:38;;;;;;;;;0.00;0.00;;;;;;;;4995754;28;45505;-67
2023/05/09 11:08:19;;;;;;;;;0.00;0.00;;;;;;;;4996604;28;46034;-67
2023/05/09 11:10:44;;;;;;;;;1.00;1.00;;;;;;;;4996494;28;45772;-67
2023/05/09 11:13:09;;;;;;;;;0.33;0.33;;;;;;;;4995935;28;45399;-68
2023/05/09 11:15:35;;;;;;;;;0.00;0.00;;;;;;;;4996268;28;45736;-68
2023/05/09 11:18:08;;;;;;;;;0.00;0.00;;;;;;;;4996467;28;46771;-68
2023/05/09 11:20:36;;;;;;;;;1.00;0.00;;;;;;;;4995871;28;45334;-67
2023/05/09 11:23:05;;;;;;;;;0.67;0.67;;;;;;;;4994476;28;45390;-67
2023/05/09 11:25:31;;;;;;;;;0.00;0.00;;;;;;;;4995557;28;45339;-67
2023/05/09 11:28:00;;;;;;;;;0.00;0.00;;;;;;;;4995892;28;46112;-68
2023/05/09 11:30:34;;;;;;;;;0.00;0.00;;;;;;;;4995996;28;45485;-68
2023/05/09 11:32:59;;;;;;;;;0.00;0.00;;;;;;;;4996002;28;45631;-68
2023/05/09 11:35:27;;;;;;;;;2.67;2.67;;;;;;;;4995672;28;45424;-67
2023/05/09 11:38:00;;;;;;;;;2.00;2.00;;;;;;;;4996324;28;47035;-70
2023/05/09 11:40:26;;;;;;;;;2.00;1.00;;;;;;;;4996420;28;45442;-69
2023/05/09 11:42:52;;;;;;;;;0.33;0.33;;;;;;;;4995483;28;45538;-69
2023/05/09 11:45:19;;;;;;;;;0.00;0.00;;;;;;;;4995237;28;45442;-69
2023/05/09 11:47:45;;;;;;;;;0.00;0.00;;;;;;;;4995093;28;46180;-69
2023/05/09 11:50:11;;;;;;;;;2.67;1.00;;;;;;;;4995473;28;45449;-69
2023/05/09 11:52:37;;;;;;;;;0.67;0.67;;;;;;;;4995722;28;45428;-69
2023/05/09 11:55:02;;;;;;;;;0.00;0.00;;;;;;;;4995467;28;45344;-69
2023/05/09 11:57:28;;;;;;;;;0.00;0.00;;;;;;;;4994366;28;46176;-70
2023/05/09 11:59:53;;;;;;;;;0.00;0.00;;;;;;;;4995664;28;45310;-69
2023/05/09 12:02:18;;;;;;;;;0.00;0.00;;;;;;;;4994774;28;45498;-69
2023/05/09 12:04:44;;;;;;;;;2.00;0.00;;;;;;;;4994951;28;45500;-69
2023/05/09 12:07:10;;;;;;;;;0.67;0.67;;;;;;;;4995145;28;45856;-67
2023/05/09 12:09:38;;;;;;;;;1.00;1.00;;;;;;;;4995040;28;45663;-69
2023/05/09 12:12:13;;;;;;;;;2.00;0.67;;;;;;;;4994795;28;45446;-68
2023/05/09 12:14:38;;;;;;;;;0.00;0.00;;;;;;;;4995398;28;45554;-69
2023/05/09 12:17:04;;;;;;;;;1.00;1.00;;;;;;;;4994166;28;45563;-69
2023/05/09 12:19:30;;;;;;;;;0.00;0.00;;;;;;;;4994882;28;45554;-69
2023/05/09 12:21:59;;;;;;;;;1.00;1.00;;;;;;;;4995199;28;45383;-70
2023/05/09 12:24:27;;;;;;;;;1.00;1.00;;;;;;;;4995315;28;45292;-70
2023/05/09 12:26:56;;;;;;;;;2.00;2.00;;;;;;;;4994732;28;45378;-70
2023/05/09 12:29:21;;;;;;;;;2.00;0.67;;;;;;;;4994818;28;45373;-69
2023/05/09 12:31:47;;;;;;;;;1.00;1.00;;;;;;;;4994904;28;45275;-69
2023/05/09 12:34:12;;;;;;;;;0.00;0.00;;;;;;;;4994532;28;45450;-69
2023/05/09 12:36:38;;;;;;;;;1.75;1.75;;;;;;;;4994541;28;46176;-69
2023/05/09 12:39:12;;;;;;;;;0.33;0.33;;;;;;;;4995162;28;45344;-69
2023/05/09 12:41:47;;;;;;;;;1.00;1.00;;;;;;;;4995067;28;45635;-69
2023/05/09 12:44:24;;;;;;;;;1.67;0.67;;;;;;;;4994895;28;45371;-69
2023/05/09 12:47:11;;;;;;;;;0.00;0.00;;;;;;;;4994402;28;46209;-69
2023/05/09 12:49:36;;;;;;;;;1.00;1.00;;;;;;;;4994502;28;45382;-69
2023/05/09 12:52:02;;;;;;;;;0.00;0.00;;;;;;;;4994617;28;45406;-69
2023/05/09 12:54:27;;;;;;;;;0.00;0.00;;;;;;;;4995008;28;45394;-70
2023/05/09 12:56:57;;;;;;;;;0.00;0.00;;;;;;;;4994271;28;46130;-70
2023/05/09 12:59:23;;;;;;;;;1.00;1.00;;;;;;;;4994428;28;45357;-69
2023/05/09 13:01:52;;;;;;;;;1.00;1.00;;;;;;;;4994969;28;45387;-69
2023/05/09 13:04:18;;;;;;;;;2.00;2.00;;;;;;;;4994790;28;45391;-69
2023/05/09 13:06:51;;;;;;;;;1.00;1.00;;;;;;;;4994321;28;45927;-69
2023/05/09 13:09:17;;;;;;;;;0.67;0.67;;;;;;;;4994551;28;45356;-69
2023/05/09 13:11:42;;;;;;;;;1.00;1.00;;;;;;;;4994740;28;45416;-69
2023/05/09 13:14:08;;;;;;;;;2.00;2.00;;;;;;;;4994658;28;45304;-69
2023/05/09 13:16:33;;;;;;;;;1.00;1.00;;;;;;;;4994623;28;47440;-68
2023/05/09 13:19:00;;;;;;;;;0.00;0.00;;;;;;;;4994403;28;45474;-69
2023/05/09 13:21:25;;;;;;;;;0.00;0.00;;;;;;;;4994627;28;45436;-69
2023/05/09 13:23:51;;;;;;;;;0.67;0.67;;;;;;;;4994560;28;45507;-68
2023/05/09 13:26:16;;;;;;;;;1.00;1.00;;;;;;;;4994216;28;46641;-68
2023/05/09 13:28:41;;;;;;;;;1.00;1.00;;;;;;;;4993508;28;45316;-69
2023/05/09 13:31:06;;;;;;;;;1.00;1.00;;;;;;;;4994458;28;45476;-69
2023/05/09 13:33:32;;;;;;;;;0.67;0.67;;;;;;;;4994571;28;45418;-68
2023/05/09 13:35:57;;;;;;;;;0.00;0.00;;;;;;;;4993945;28;47025;-68
2023/05/09 13:38:22;;;;;;;;;1.00;1.00;;;;;;;;4994267;28;45351;-69
2023/05/09 13:40:47;;;;;;;;;0.33;0.33;;;;;;;;4994185;28;45389;-69
2023/05/09 13:43:12;;;;;;;;;1.00;1.00;;;;;;;;4994286;28;45356;-69
2023/05/09 13:45:38;;;;;;;;;4.25;4.00;;;;;;;;4994747;28;48306;-68
2023/05/09 13:48:03;;;;;;;;;2.00;2.00;;;;;;;;4997322;28;45419;-69
2023/05/09 13:50:28;;;;;;;;;4.00;2.00;;;;;;;;4997689;28;45476;-72
2023/05/09 13:52:54;;;;;;;;;0.67;0.67;;;;;;;;4997676;28;45243;-74
2023/05/09 13:55:19;;;;;;;;;0.67;0.67;;;;;;;;4997672;28;46359;-73
2023/05/09 13:57:44;;;;;;;;;1.00;1.00;;;;;;;;4996789;28;45396;-74
2023/05/09 14:00:10;;;;;;;;;0.67;0.67;;;;;;;;4997448;28;45607;-71
2023/05/09 14:02:35;;;;;;;;;0.67;0.67;;;;;;;;4997396;28;45489;-70
2023/05/09 14:05:02;;;;;;;;;0.33;0.33;;;;;;;;4997298;28;47407;-69
2023/05/09 14:07:27;;;;;;;;;1.67;1.67;;;;;;;;4996892;28;45484;-69
2023/05/09 14:09:52;;;;;;;;;0.67;0.67;;;;;;;;4992721;28;45479;-69
2023/05/09 14:12:18;;;;;;;;;3.00;2.00;;;;;;;;4983460;28;45516;-69
2023/05/09 14:14:43;;;;;;;;;0.67;0.67;;;;;;;;4994967;28;48244;-69
2023/05/09 14:17:08;;;;;;;;;2.50;2.50;;;;;;;;4994205;28;45479;-69
2023/05/09 14:19:33;;;;;;;;;2.00;2.00;;;;;;;;4980964;28;45444;-69
2023/05/09 14:21:58;;;;;;;;;3.00;3.00;;;;;;;;4988812;28;45467;-69
2023/05/09 14:24:24;;;;;;;;;2.00;2.00;;;;;;;;4987687;28;46319;-68
2023/05/09 14:26:49;;;;;;;;;3.67;2.00;;;;;;;;4981336;28;45459;-70
2023/05/09 14:29:15;;;;;;;;;5.00;3.00;;;;;;;;4992917;28;45352;-67
2023/05/09 14:31:40;;;;;;;;;4.75;4.75;;;;;;;;4996030;28;45594;-68
2023/05/09 14:34:06;;;;;;;;;4.75;4.50;;;;;;;;4996317;28;47061;-68
2023/05/09 14:36:31;;;;;;;;;3.67;3.67;;;;;;;;4978424;28;45522;-68
2023/05/09 14:38:57;;;;;;;;;4.00;4.00;;;;;;;;4984457;28;45658;-68